sensor_id;sensor_type;location;lat;lon;timestamp;pressure;altitude;pressure_sealevel;temperature;humidity
66385;BME280;53426;55.872;37.462;2023-06-10T00:02:05;99661.66;;;10.72;61.63
66385;BME280;53426;55.872;37.462;2023-06-10T00:04:32;99652.91;;;10.60;61.25
66385;BME280;53426;55.872;37.462;2023-06-10T00:06:58;99670.22;;;10.64;61.76
66385;BME280;53426;55.872;37.462;2023-06-10T00:09:24;99666.53;;;10.56;62.06
66385;BME280;53426;55.872;37.462;2023-06-10T00:11:51;99663.88;;;10.56;61.97
66385;BME280;53426;55.872;37.462;2023-06-10T00:14:17;99644.91;;;10.39;62.20
66385;BME280;53426;55.872;37.462;2023-06-10T00:16:43;99610.56;;;10.17;61.86
66385;BME280;53426;55.872;37.462;2023-06-10T00:19:11;99624.38;;;10.21;62.21
66385;BME280;53426;55.872;37.462;2023-06-10T00:21:39;99672.91;;;10.42;62.63
66385;BME280;53426;55.872;37.462;2023-06-10T00:24:07;99670.66;;;10.37;62.70
66385;BME280;53426;55.872;37.462;2023-06-10T00:26:40;99682.84;;;10.29;62.89
66385;BME280;53426;55.872;37.462;2023-06-10T00:29:07;99682.00;;;10.28;62.95
66385;BME280;53426;55.872;37.462;2023-06-10T00:31:34;99681.53;;;10.23;63.18
66385;BME280;53426;55.872;37.462;2023-06-10T00:34:03;99686.34;;;10.18;63.29
66385;BME280;53426;55.872;37.462;2023-06-10T00:36:32;99689.47;;;10.23;63.42
66385;BME280;53426;55.872;37.462;2023-06-10T00:38:58;99666.84;;;10.08;63.87
66385;BME280;53426;55.872;37.462;2023-06-10T00:41:28;99676.69;;;10.06;63.52
66385;BME280;53426;55.872;37.462;2023-06-10T00:43:54;99687.41;;;10.04;63.85
66385;BME280;53426;55.872;37.462;2023-06-10T00:46:23;99697.88;;;10.06;64.37
66385;BME280;53426;55.872;37.462;2023-06-10T00:48:55;99716.84;;;10.11;63.92
66385;BME280;53426;55.872;37.462;2023-06-10T00:51:22;99686.56;;;9.93;64.04
66385;BME280;53426;55.872;37.462;2023-06-10T00:53:48;99712.53;;;10.10;63.99
66385;BME280;53426;55.872;37.462;2023-06-10T00:56:16;99696.19;;;9.94;64.36
66385;BME280;53426;55.872;37.462;2023-06-10T00:58:42;99717.13;;;10.08;64.58
66385;BME280;53426;55.872;37.462;2023-06-10T01:01:10;99716.38;;;10.06;64.44
66385;BME280;53426;55.872;37.462;2023-06-10T01:03:39;99723.00;;;10.12;63.86
66385;BME280;53426;55.872;37.462;2023-06-10T01:06:22;99703.16;;;10.06;63.60
66385;BME280;53426;55.872;37.462;2023-06-10T01:09:14;99713.25;;;10.12;63.90
66385;BME280;53426;55.872;37.462;2023-06-10T01:11:58;99730.59;;;10.27;64.14
66385;BME280;53426;55.872;37.462;2023-06-10T01:14:27;99729.25;;;10.33;64.68
66385;BME280;53426;55.872;37.462;2023-06-10T01:16:54;99737.69;;;10.27;64.62
66385;BME280;53426;55.872;37.462;2023-06-10T01:19:20;99733.47;;;10.13;64.93
66385;BME280;53426;55.872;37.462;2023-06-10T01:21:51;99738.03;;;10.11;65.10
66385;BME280;53426;55.872;37.462;2023-06-10T01:24:18;99738.41;;;10.06;65.16
66385;BME280;53426;55.872;37.462;2023-06-10T01:26:45;99733.84;;;9.97;65.63
66385;BME280;53426;55.872;37.462;2023-06-10T01:29:45;99745.84;;;10.01;65.57
66385;BME280;53426;55.872;37.462;2023-06-10T01:32:25;99751.72;;;10.05;65.25
66385;BME280;53426;55.872;37.462;2023-06-10T01:34:52;99725.53;;;9.91;65.33
66385;BME280;53426;55.872;37.462;2023-06-10T01:37:19;99749.44;;;10.12;65.21
66385;BME280;53426;55.872;37.462;2023-06-10T01:39:49;99747.06;;;10.08;65.01
66385;BME280;53426;55.872;37.462;2023-06-10T01:42:15;99724.09;;;9.98;64.44
66385;BME280;53426;55.872;37.462;2023-06-10T01:44:41;99747.19;;;10.07;64.47
66385;BME280;53426;55.872;37.462;2023-06-10T01:47:08;99756.09;;;10.17;64.34
66385;BME280;53426;55.872;37.462;2023-06-10T01:49:34;99756.44;;;10.13;64.24
66385;BME280;53426;55.872;37.462;2023-06-10T01:52:00;99719.75;;;9.86;63.95
66385;BME280;53426;55.872;37.462;2023-06-10T01:54:26;99762.19;;;10.06;64.43
66385;BME280;53426;55.872;37.462;2023-06-10T01:56:52;99761.72;;;10.01;64.50
66385;BME280;53426;55.872;37.462;2023-06-10T01:59:18;99765.81;;;10.05;64.26
66385;BME280;53426;55.872;37.462;2023-06-10T02:01:44;99765.81;;;10.05;64.55
66385;BME280;53426;55.872;37.462;2023-06-10T02:04:10;99734.06;;;9.83;64.42
66385;BME280;53426;55.872;37.462;2023-06-10T02:06:36;99758.50;;;9.98;64.58
66385;BME280;53426;55.872;37.462;2023-06-10T02:09:03;99776.16;;;10.08;64.16
66385;BME280;53426;55.872;37.462;2023-06-10T02:11:31;99749.94;;;9.94;64.14
66385;BME280;53426;55.872;37.462;2023-06-10T02:13:57;99781.78;;;10.04;64.21
66385;BME280;53426;55.872;37.462;2023-06-10T02:16:23;99750.88;;;9.93;64.03
66385;BME280;53426;55.872;37.462;2023-06-10T02:18:50;99781.47;;;10.08;63.82
66385;BME280;53426;55.872;37.462;2023-06-10T02:21:15;99774.47;;;10.07;63.93
66385;BME280;53426;55.872;37.462;2023-06-10T02:23:41;99775.06;;;10.11;64.56
66385;BME280;53426;55.872;37.462;2023-06-10T02:26:07;99778.97;;;10.18;63.56
66385;BME280;53426;55.872;37.462;2023-06-10T02:28:33;99786.06;;;10.18;63.81
66385;BME280;53426;55.872;37.462;2023-06-10T02:30:59;99768.44;;;10.05;64.05
66385;BME280;53426;55.872;37.462;2023-06-10T02:33:27;99779.66;;;10.09;64.15
66385;BME280;53426;55.872;37.462;2023-06-10T02:35:53;99792.19;;;10.18;64.10
66385;BME280;53426;55.872;37.462;2023-06-10T02:38:23;99790.97;;;10.22;63.67
66385;BME280;53426;55.872;37.462;2023-06-10T02:40:49;99775.66;;;10.15;63.53
66385;BME280;53426;55.872;37.462;2023-06-10T02:43:16;99795.06;;;10.26;63.30
66385;BME280;53426;55.872;37.462;2023-06-10T02:45:44;99795.19;;;10.47;63.35
66385;BME280;53426;55.872;37.462;2023-06-10T02:48:11;99803.31;;;11.20;60.84
66385;BME280;53426;55.872;37.462;2023-06-10T02:50:38;99765.59;;;11.69;58.50
66385;BME280;53426;55.872;37.462;2023-06-10T02:53:18;99803.25;;;12.35;57.09
66385;BME280;53426;55.872;37.462;2023-06-10T02:55:51;99795.69;;;12.71;55.98
66385;BME280;53426;55.872;37.462;2023-06-10T02:58:19;99791.25;;;12.90;55.51
66385;BME280;53426;55.872;37.462;2023-06-10T03:00:46;99803.22;;;13.25;54.02
66385;BME280;53426;55.872;37.462;2023-06-10T03:03:13;99811.47;;;13.60;53.95
66385;BME280;53426;55.872;37.462;2023-06-10T03:06:13;99784.31;;;13.57;52.46
66385;BME280;53426;55.872;37.462;2023-06-10T03:08:40;99810.34;;;14.19;51.17
66385;BME280;53426;55.872;37.462;2023-06-10T03:11:11;99796.88;;;14.40;50.67
66385;BME280;53426;55.872;37.462;2023-06-10T03:13:38;99804.63;;;14.88;49.40
66385;BME280;53426;55.872;37.462;2023-06-10T03:16:07;99795.75;;;15.32;48.16
66385;BME280;53426;55.872;37.462;2023-06-10T03:18:36;99786.53;;;15.88;46.78
66385;BME280;53426;55.872;37.462;2023-06-10T03:21:02;99785.78;;;15.78;46.19
66385;BME280;53426;55.872;37.462;2023-06-10T03:23:29;99816.44;;;16.17;45.74
66385;BME280;53426;55.872;37.462;2023-06-10T03:26:01;99805.28;;;16.56;44.90
66385;BME280;53426;55.872;37.462;2023-06-10T03:28:28;99791.94;;;17.14;43.16
66385;BME280;53426;55.872;37.462;2023-06-10T03:30:55;99805.13;;;16.99;43.70
66385;BME280;53426;55.872;37.462;2023-06-10T03:33:24;99798.28;;;17.05;43.07
66385;BME280;53426;55.872;37.462;2023-06-10T03:35:50;99818.25;;;17.27;41.99
66385;BME280;53426;55.872;37.462;2023-06-10T03:38:17;99811.22;;;17.26;41.59
66385;BME280;53426;55.872;37.462;2023-06-10T03:40:44;99809.16;;;17.03;42.28
66385;BME280;53426;55.872;37.462;2023-06-10T03:43:10;99815.72;;;17.17;41.99
66385;BME280;53426;55.872;37.462;2023-06-10T03:45:37;99798.47;;;17.11;41.58
66385;BME280;53426;55.872;37.462;2023-06-10T03:48:04;99800.00;;;17.30;40.93
66385;BME280;53426;55.872;37.462;2023-06-10T03:50:41;99805.03;;;17.57;39.73
66385;BME280;53426;55.872;37.462;2023-06-10T03:53:08;99799.72;;;17.98;39.35
66385;BME280;53426;55.872;37.462;2023-06-10T03:55:36;99816.59;;;18.07;38.99
66385;BME280;53426;55.872;37.462;2023-06-10T03:58:02;99816.91;;;18.20;38.71
66385;BME280;53426;55.872;37.462;2023-06-10T04:00:28;99819.25;;;18.31;37.98
66385;BME280;53426;55.872;37.462;2023-06-10T04:02:55;99793.88;;;18.50;38.06
66385;BME280;53426;55.872;37.462;2023-06-10T04:05:38;99823.91;;;18.92;36.10
66385;BME280;53426;55.872;37.462;2023-06-10T04:08:04;99795.28;;;18.76;36.72
66385;BME280;53426;55.872;37.462;2023-06-10T04:10:30;99827.13;;;19.18;36.52
66385;BME280;53426;55.872;37.462;2023-06-10T04:12:57;99820.09;;;19.40;36.21
66385;BME280;53426;55.872;37.462;2023-06-10T04:15:26;99831.63;;;19.72;35.69
66385;BME280;53426;55.872;37.462;2023-06-10T04:17:53;99817.50;;;19.92;34.83
66385;BME280;53426;55.872;37.462;2023-06-10T04:20:23;99837.72;;;19.88;34.52
66385;BME280;53426;55.872;37.462;2023-06-10T04:22:49;99837.72;;;19.88;34.62
66385;BME280;53426;55.872;37.462;2023-06-10T04:25:16;99828.72;;;19.58;33.82
66385;BME280;53426;55.872;37.462;2023-06-10T04:27:44;99837.69;;;19.43;34.14
66385;BME280;53426;55.872;37.462;2023-06-10T04:30:11;99838.81;;;19.79;33.66
66385;BME280;53426;55.872;37.462;2023-06-10T04:32:38;99831.25;;;19.75;33.47
66385;BME280;53426;55.872;37.462;2023-06-10T04:35:08;99838.19;;;19.92;33.50
66385;BME280;53426;55.872;37.462;2023-06-10T04:37:36;99826.59;;;20.87;32.65
66385;BME280;53426;55.872;37.462;2023-06-10T04:40:04;99835.09;;;21.06;31.31
66385;BME280;53426;55.872;37.462;2023-06-10T04:42:31;99828.50;;;21.08;31.10
66385;BME280;53426;55.872;37.462;2023-06-10T04:44:57;99840.81;;;20.81;31.79
66385;BME280;53426;55.872;37.462;2023-06-10T04:47:25;99823.22;;;21.15;30.71
66385;BME280;53426;55.872;37.462;2023-06-10T04:49:52;99853.41;;;21.67;30.77
66385;BME280;53426;55.872;37.462;2023-06-10T04:52:18;99834.13;;;22.41;30.08
66385;BME280;53426;55.872;37.462;2023-06-10T04:54:44;99844.09;;;22.40;29.55
66385;BME280;53426;55.872;37.462;2023-06-10T04:57:11;99845.72;;;21.86;30.18
66385;BME280;53426;55.872;37.462;2023-06-10T04:59:38;99855.00;;;22.04;30.01
66385;BME280;53426;55.872;37.462;2023-06-10T05:02:04;99850.47;;;22.05;30.16
66385;BME280;53426;55.872;37.462;2023-06-10T05:04:30;99848.34;;;22.56;29.92
66385;BME280;53426;55.872;37.462;2023-06-10T05:06:56;99802.22;;;22.51;29.17
66385;BME280;53426;55.872;37.462;2023-06-10T05:09:22;99854.88;;;22.40;29.69
66385;BME280;53426;55.872;37.462;2023-06-10T05:11:48;99850.44;;;22.61;29.18
66385;BME280;53426;55.872;37.462;2023-06-10T05:14:14;99860.66;;;21.88;30.04
66385;BME280;53426;55.872;37.462;2023-06-10T05:16:44;99874.13;;;21.67;30.38
66385;BME280;53426;55.872;37.462;2023-06-10T05:19:10;99867.72;;;22.10;30.00
66385;BME280;53426;55.872;37.462;2023-06-10T05:21:37;99827.53;;;22.50;29.49
66385;BME280;53426;55.872;37.462;2023-06-10T05:24:05;99865.06;;;23.61;28.19
66385;BME280;53426;55.872;37.462;2023-06-10T05:26:31;99868.97;;;23.52;27.77
66385;BME280;53426;55.872;37.462;2023-06-10T05:28:58;99872.13;;;23.15;28.46
66385;BME280;53426;55.872;37.462;2023-06-10T05:31:24;99872.78;;;23.77;28.08
66385;BME280;53426;55.872;37.462;2023-06-10T05:33:50;99865.56;;;22.83;29.17
66385;BME280;53426;55.872;37.462;2023-06-10T05:36:16;99856.72;;;21.27;30.50
66385;BME280;53426;55.872;37.462;2023-06-10T05:38:42;99877.16;;;21.57;31.10
66385;BME280;53426;55.872;37.462;2023-06-10T05:41:08;99891.69;;;21.99;30.23
66385;BME280;53426;55.872;37.462;2023-06-10T05:43:34;99856.13;;;20.14;32.23
66385;BME280;53426;55.872;37.462;2023-06-10T05:46:01;99883.13;;;20.21;32.36
66385;BME280;53426;55.872;37.462;2023-06-10T05:48:28;99872.00;;;20.61;31.91
66385;BME280;53426;55.872;37.462;2023-06-10T05:50:54;99876.63;;;19.70;32.89
66385;BME280;53426;55.872;37.462;2023-06-10T05:53:20;99887.66;;;20.43;32.24
66385;BME280;53426;55.872;37.462;2023-06-10T05:55:46;99887.25;;;21.34;31.09
66385;BME280;53426;55.872;37.462;2023-06-10T05:58:13;99886.50;;;22.53;29.86
66385;BME280;53426;55.872;37.462;2023-06-10T06:00:40;99849.28;;;23.98;28.11
66385;BME280;53426;55.872;37.462;2023-06-10T06:03:08;99877.06;;;23.52;28.62
66385;BME280;53426;55.872;37.462;2023-06-10T06:05:36;99883.28;;;22.99;29.42
66385;BME280;53426;55.872;37.462;2023-06-10T06:08:07;99881.38;;;22.92;29.50
66385;BME280;53426;55.872;37.462;2023-06-10T06:10:34;99860.28;;;21.91;30.44
66385;BME280;53426;55.872;37.462;2023-06-10T06:13:00;99828.09;;;21.11;31.32
66385;BME280;53426;55.872;37.462;2023-06-10T06:15:28;99878.03;;;20.78;32.84
66385;BME280;53426;55.872;37.462;2023-06-10T06:17:54;99887.09;;;20.10;33.73
66385;BME280;53426;55.872;37.462;2023-06-10T06:20:25;99897.88;;;20.25;33.37
66385;BME280;53426;55.872;37.462;2023-06-10T06:22:51;99838.41;;;19.68;33.78
66385;BME280;53426;55.872;37.462;2023-06-10T06:25:35;99837.53;;;19.90;33.47
66385;BME280;53426;55.872;37.462;2023-06-10T06:28:02;99832.91;;;18.99;34.40
66385;BME280;53426;55.872;37.462;2023-06-10T06:33:40;99814.81;;;17.83;36.13
66385;BME280;53426;55.872;37.462;2023-06-10T06:36:06;99816.81;;;18.52;35.53
66385;BME280;53426;55.872;37.462;2023-06-10T06:38:44;99815.31;;;19.96;32.35
66385;BME280;53426;55.872;37.462;2023-06-10T06:45:08;99762.72;;;22.02;28.63
66385;BME280;53426;55.872;37.462;2023-06-10T06:48:08;99910.41;;;23.66;28.30
66385;BME280;53426;55.872;37.462;2023-06-10T06:50:49;99838.47;;;23.98;26.37
66385;BME280;53426;55.872;37.462;2023-06-10T06:53:15;99850.53;;;24.54;26.04
66385;BME280;53426;55.872;37.462;2023-06-10T06:55:41;99923.47;;;23.15;28.02
66385;BME280;53426;55.872;37.462;2023-06-10T06:58:07;99901.19;;;21.95;29.39
66385;BME280;53426;55.872;37.462;2023-06-10T07:00:49;99845.88;;;21.20;30.60
66385;BME280;53426;55.872;37.462;2023-06-10T07:03:16;99812.25;;;20.14;31.57
66385;BME280;53426;55.872;37.462;2023-06-10T07:06:12;99927.91;;;20.51;32.62
66385;BME280;53426;55.872;37.462;2023-06-10T07:08:38;99868.63;;;20.74;31.93
66385;BME280;53426;55.872;37.462;2023-06-10T07:14:23;99871.94;;;23.97;27.52
66385;BME280;53426;55.872;37.462;2023-06-10T07:16:49;99763.13;;;23.95;26.29
66385;BME280;53426;55.872;37.462;2023-06-10T07:19:15;99911.53;;;24.31;25.90
66385;BME280;53426;55.872;37.462;2023-06-10T07:21:41;99919.66;;;24.31;26.08
66385;BME280;53426;55.872;37.462;2023-06-10T07:24:07;99915.09;;;24.38;25.96
66385;BME280;53426;55.872;37.462;2023-06-10T07:26:33;99938.53;;;23.98;25.87
66385;BME280;53426;55.872;37.462;2023-06-10T07:28:59;99931.72;;;24.28;25.74
66385;BME280;53426;55.872;37.462;2023-06-10T07:31:25;99933.28;;;25.21;24.82
66385;BME280;53426;55.872;37.462;2023-06-10T07:33:51;99943.34;;;25.97;23.79
66385;BME280;53426;55.872;37.462;2023-06-10T07:36:17;99912.69;;;25.96;23.45
66385;BME280;53426;55.872;37.462;2023-06-10T07:38:53;99906.63;;;27.30;22.92
66385;BME280;53426;55.872;37.462;2023-06-10T07:41:19;99911.41;;;27.94;20.94
66385;BME280;53426;55.872;37.462;2023-06-10T07:43:46;99947.19;;;27.13;20.43
66385;BME280;53426;55.872;37.462;2023-06-10T07:46:26;99941.13;;;26.50;22.56
66385;BME280;53426;55.872;37.462;2023-06-10T07:50:10;99867.94;;;26.05;20.03
66385;BME280;53426;55.872;37.462;2023-06-10T07:52:39;99901.81;;;27.32;20.03
66385;BME280;53426;55.872;37.462;2023-06-10T07:55:09;99909.78;;;27.45;19.46
66385;BME280;53426;55.872;37.462;2023-06-10T07:57:48;99842.72;;;27.39;18.72
66385;BME280;53426;55.872;37.462;2023-06-10T08:03:14;99851.94;;;27.38;18.81
66385;BME280;53426;55.872;37.462;2023-06-10T08:05:43;99954.56;;;28.50;18.10
66385;BME280;53426;55.872;37.462;2023-06-10T08:08:25;99853.31;;;27.88;18.53
66385;BME280;53426;55.872;37.462;2023-06-10T08:10:51;99851.09;;;27.56;19.50
66385;BME280;53426;55.872;37.462;2023-06-10T08:16:48;99891.00;;;27.73;19.00
66385;BME280;53426;55.872;37.462;2023-06-10T08:19:14;99906.91;;;28.64;19.69
66385;BME280;53426;55.872;37.462;2023-06-10T08:21:40;99886.84;;;29.29;17.79
66385;BME280;53426;55.872;37.462;2023-06-10T08:24:11;99977.00;;;29.34;19.64
66385;BME280;53426;55.872;37.462;2023-06-10T08:32:54;99971.28;;;24.88;22.67
66385;BME280;53426;55.872;37.462;2023-06-10T08:35:23;99906.94;;;24.05;22.31
66385;BME280;53426;55.872;37.462;2023-06-10T08:37:49;99961.50;;;24.41;22.21
66385;BME280;53426;55.872;37.462;2023-06-10T08:40:16;99970.25;;;23.56;23.65
66385;BME280;53426;55.872;37.462;2023-06-10T08:45:29;99977.88;;;21.71;24.89
66385;BME280;53426;55.872;37.462;2023-06-10T08:47:57;99976.22;;;20.82;26.00
66385;BME280;53426;55.872;37.462;2023-06-10T08:50:25;99969.25;;;21.46;25.89
66385;BME280;53426;55.872;37.462;2023-06-10T08:52:54;99956.16;;;23.26;24.44
66385;BME280;53426;55.872;37.462;2023-06-10T08:58:00;99961.78;;;26.19;21.59
66385;BME280;53426;55.872;37.462;2023-06-10T09:00:28;99933.91;;;27.60;19.87
66385;BME280;53426;55.872;37.462;2023-06-10T09:02:55;99966.19;;;27.86;19.39
66385;BME280;53426;55.872;37.462;2023-06-10T09:05:22;99984.13;;;27.39;19.64
66385;BME280;53426;55.872;37.462;2023-06-10T09:07:48;99988.25;;;25.93;21.18
66385;BME280;53426;55.872;37.462;2023-06-10T09:10:14;99966.94;;;24.54;22.21
66385;BME280;53426;55.872;37.462;2023-06-10T09:12:40;99984.56;;;23.16;23.91
66385;BME280;53426;55.872;37.462;2023-06-10T09:15:07;99992.94;;;22.23;24.28
66385;BME280;53426;55.872;37.462;2023-06-10T09:17:33;99988.69;;;21.42;25.42
66385;BME280;53426;55.872;37.462;2023-06-10T09:20:02;99977.50;;;21.45;25.20
66385;BME280;53426;55.872;37.462;2023-06-10T09:22:32;99984.31;;;21.41;24.88
66385;BME280;53426;55.872;37.462;2023-06-10T09:25:05;99993.09;;;22.36;24.92
66385;BME280;53426;55.872;37.462;2023-06-10T09:27:51;99995.59;;;22.86;24.00
66385;BME280;53426;55.872;37.462;2023-06-10T09:30:34;99925.94;;;23.10;23.58
66385;BME280;53426;55.872;37.462;2023-06-10T09:33:27;99984.44;;;24.98;21.81
66385;BME280;53426;55.872;37.462;2023-06-10T09:39:00;99991.66;;;27.00;20.65
66385;BME280;53426;55.872;37.462;2023-06-10T09:41:34;100006.00;;;27.51;19.33
66385;BME280;53426;55.872;37.462;2023-06-10T09:44:27;99989.16;;;27.90;19.19
66385;BME280;53426;55.872;37.462;2023-06-10T09:46:52;99994.28;;;26.01;19.84
66385;BME280;53426;55.872;37.462;2023-06-10T09:49:20;99970.28;;;25.98;19.73
66385;BME280;53426;55.872;37.462;2023-06-10T09:51:53;99982.53;;;27.49;19.95
66385;BME280;53426;55.872;37.462;2023-06-10T09:54:20;99971.81;;;28.03;17.68
66385;BME280;53426;55.872;37.462;2023-06-10T09:56:52;99985.38;;;27.91;17.65
66385;BME280;53426;55.872;37.462;2023-06-10T09:59:30;99974.66;;;28.38;17.92
66385;BME280;53426;55.872;37.462;2023-06-10T10:02:01;99978.84;;;27.80;17.75
66385;BME280;53426;55.872;37.462;2023-06-10T10:04:27;99994.72;;;27.11;19.44
66385;BME280;53426;55.872;37.462;2023-06-10T10:06:54;99983.00;;;27.28;19.86
66385;BME280;53426;55.872;37.462;2023-06-10T10:09:19;99996.44;;;28.38;18.68
66385;BME280;53426;55.872;37.462;2023-06-10T10:11:46;99978.78;;;28.28;17.55
66385;BME280;53426;55.872;37.462;2023-06-10T10:14:13;99983.66;;;28.80;17.30
66385;BME280;53426;55.872;37.462;2023-06-10T10:16:42;99979.97;;;30.01;16.35
66385;BME280;53426;55.872;37.462;2023-06-10T10:19:16;99985.00;;;27.58;17.39
66385;BME280;53426;55.872;37.462;2023-06-10T10:21:59;99986.84;;;27.02;18.09
66385;BME280;53426;55.872;37.462;2023-06-10T10:24:50;99996.31;;;26.69;17.98
66385;BME280;53426;55.872;37.462;2023-06-10T10:27:29;99961.03;;;26.44;17.97
66385;BME280;53426;55.872;37.462;2023-06-10T10:29:58;99987.25;;;28.09;16.92
66385;BME280;53426;55.872;37.462;2023-06-10T10:32:32;99982.03;;;27.41;17.00
66385;BME280;53426;55.872;37.462;2023-06-10T10:35:08;99995.63;;;28.07;16.76
66385;BME280;53426;55.872;37.462;2023-06-10T10:37:35;99996.72;;;27.58;16.67
66385;BME280;53426;55.872;37.462;2023-06-10T10:40:03;99991.34;;;26.90;18.55
66385;BME280;53426;55.872;37.462;2023-06-10T10:42:30;99970.25;;;26.36;18.19
66385;BME280;53426;55.872;37.462;2023-06-10T10:44:58;99979.53;;;26.22;18.97
66385;BME280;53426;55.872;37.462;2023-06-10T10:47:27;99964.81;;;25.67;19.85
66385;BME280;53426;55.872;37.462;2023-06-10T10:49:56;99969.63;;;24.22;21.42
66385;BME280;53426;55.872;37.462;2023-06-10T10:52:27;99973.53;;;22.34;21.81
66385;BME280;53426;55.872;37.462;2023-06-10T10:55:14;99985.06;;;21.05;23.86
66385;BME280;53426;55.872;37.462;2023-06-10T10:57:40;99992.47;;;20.28;24.38
66385;BME280;53426;55.872;37.462;2023-06-10T11:00:07;99992.91;;;20.17;25.02
66385;BME280;53426;55.872;37.462;2023-06-10T11:05:15;99997.41;;;19.94;27.25
66385;BME280;53426;55.872;37.462;2023-06-10T11:07:52;99988.38;;;19.87;26.91
66385;BME280;53426;55.872;37.462;2023-06-10T11:10:29;99990.00;;;19.73;26.74
66385;BME280;53426;55.872;37.462;2023-06-10T11:12:57;99983.91;;;19.40;28.77
66385;BME280;53426;55.872;37.462;2023-06-10T11:15:27;99993.34;;;19.28;27.10
66385;BME280;53426;55.872;37.462;2023-06-10T11:18:28;99997.69;;;18.74;27.29
66385;BME280;53426;55.872;37.462;2023-06-10T11:21:02;99980.25;;;18.54;27.36
66385;BME280;53426;55.872;37.462;2023-06-10T11:31:42;99991.38;;;19.92;26.02
66385;BME280;53426;55.872;37.462;2023-06-10T11:34:09;99984.34;;;19.91;26.63
66385;BME280;53426;55.872;37.462;2023-06-10T11:36:41;99980.34;;;19.56;26.19
66385;BME280;53426;55.872;37.462;2023-06-10T11:39:09;99984.63;;;18.71;26.97
66385;BME280;53426;55.872;37.462;2023-06-10T11:41:37;100002.22;;;18.49;27.34
66385;BME280;53426;55.872;37.462;2023-06-10T11:44:14;100001.88;;;18.60;26.69
66385;BME280;53426;55.872;37.462;2023-06-10T11:46:41;100004.91;;;18.82;26.46
66385;BME280;53426;55.872;37.462;2023-06-10T11:49:11;100006.25;;;18.69;28.08
66385;BME280;53426;55.872;37.462;2023-06-10T11:51:39;100012.25;;;18.79;28.79
66385;BME280;53426;55.872;37.462;2023-06-10T11:54:08;100009.75;;;18.54;29.32
66385;BME280;53426;55.872;37.462;2023-06-10T11:56:34;100008.25;;;18.43;30.27
66385;BME280;53426;55.872;37.462;2023-06-10T11:59:03;100015.09;;;18.29;30.05
66385;BME280;53426;55.872;37.462;2023-06-10T12:01:35;99996.31;;;18.05;30.46
66385;BME280;53426;55.872;37.462;2023-06-10T12:04:07;100022.28;;;18.13;30.04
66385;BME280;53426;55.872;37.462;2023-06-10T12:06:41;100001.16;;;18.02;29.68
66385;BME280;53426;55.872;37.462;2023-06-10T12:09:31;100015.88;;;18.06;29.58
66385;BME280;53426;55.872;37.462;2023-06-10T12:12:03;99962.03;;;17.58;30.28
66385;BME280;53426;55.872;37.462;2023-06-10T12:14:56;100017.09;;;18.19;29.73
66385;BME280;53426;55.872;37.462;2023-06-10T12:17:37;100011.41;;;18.30;29.38
66385;BME280;53426;55.872;37.462;2023-06-10T12:20:08;100013.94;;;18.40;29.09
66385;BME280;53426;55.872;37.462;2023-06-10T12:22:49;100005.69;;;18.50;29.00
66385;BME280;53426;55.872;37.462;2023-06-10T12:25:15;100022.78;;;18.24;29.17
66385;BME280;53426;55.872;37.462;2023-06-10T12:27:50;100026.94;;;17.94;29.19
66385;BME280;53426;55.872;37.462;2023-06-10T12:30:25;100013.44;;;17.62;30.25
66385;BME280;53426;55.872;37.462;2023-06-10T12:32:52;100020.38;;;17.81;29.63
66385;BME280;53426;55.872;37.462;2023-06-10T12:35:23;100017.88;;;17.87;30.53
66385;BME280;53426;55.872;37.462;2023-06-10T12:38:01;100015.06;;;18.13;30.82
66385;BME280;53426;55.872;37.462;2023-06-10T12:40:30;100001.53;;;18.31;30.97
66385;BME280;53426;55.872;37.462;2023-06-10T12:42:58;100011.91;;;18.18;29.83
66385;BME280;53426;55.872;37.462;2023-06-10T12:45:34;100013.53;;;17.86;28.22
66385;BME280;53426;55.872;37.462;2023-06-10T12:48:11;100017.56;;;17.98;28.21
66385;BME280;53426;55.872;37.462;2023-06-10T12:50:40;100011.03;;;18.01;28.81
66385;BME280;53426;55.872;37.462;2023-06-10T12:53:07;100009.16;;;17.85;28.74
66385;BME280;53426;55.872;37.462;2023-06-10T12:55:33;100012.19;;;17.82;31.44
66385;BME280;53426;55.872;37.462;2023-06-10T12:58:00;99989.44;;;17.44;32.44
66385;BME280;53426;55.872;37.462;2023-06-10T13:00:27;99974.22;;;17.11;33.00
66385;BME280;53426;55.872;37.462;2023-06-10T13:02:59;99983.09;;;17.11;33.62
66385;BME280;53426;55.872;37.462;2023-06-10T13:05:26;100022.16;;;17.30;33.76
66385;BME280;53426;55.872;37.462;2023-06-10T13:07:52;100028.09;;;17.16;33.70
66385;BME280;53426;55.872;37.462;2023-06-10T13:10:18;100019.91;;;16.92;33.95
66385;BME280;53426;55.872;37.462;2023-06-10T13:12:45;100023.16;;;16.95;33.54
66385;BME280;53426;55.872;37.462;2023-06-10T13:15:13;99973.25;;;16.86;33.09
66385;BME280;53426;55.872;37.462;2023-06-10T13:17:39;100026.34;;;17.33;33.57
66385;BME280;53426;55.872;37.462;2023-06-10T13:20:06;100021.44;;;17.20;33.92
66385;BME280;53426;55.872;37.462;2023-06-10T13:22:33;100029.72;;;17.09;33.33
66385;BME280;53426;55.872;37.462;2023-06-10T13:25:04;100024.41;;;16.83;33.37
66385;BME280;53426;55.872;37.462;2023-06-10T13:27:30;100031.53;;;16.75;33.38
66385;BME280;53426;55.872;37.462;2023-06-10T13:29:56;100020.53;;;16.42;34.04
66385;BME280;53426;55.872;37.462;2023-06-10T13:32:22;100041.47;;;16.29;34.16
66385;BME280;53426;55.872;37.462;2023-06-10T13:34:48;100019.72;;;16.06;33.50
66385;BME280;53426;55.872;37.462;2023-06-10T13:37:15;100026.03;;;16.23;33.49
66385;BME280;53426;55.872;37.462;2023-06-10T13:39:43;100024.88;;;16.43;32.94
66385;BME280;53426;55.872;37.462;2023-06-10T13:42:09;100025.72;;;16.79;39.14
66385;BME280;53426;55.872;37.462;2023-06-10T13:44:35;100001.09;;;16.76;35.17